METAR Data
IDs: Format: Raw Decoded Include TAF

Data at: 0936 UTC 23 Jan 2019

Region: TOP
KATL 230852Z 09010KT 10SM OVC015 06/M01 A3030 RMK AO2 SLP266 CIG 013V018 T00561011 56019

KBOS 230854Z 20006KT 10SM OVC140 M06/M14 A3046 RMK AO2 SLP313 T10611144 56023

KBWI 230854Z VRB04KT 10SM BKN190 BKN250 M02/M09 A3040 RMK AO2 SLP296 T10221089 58034

KCLE 230851Z 20016G22KT 10SM -RA FEW049 OVC060 05/M01 A2998 RMK AO2 SLP158 P0002 60003 T00501011 58014

KCLT 230852Z 01005KT 10SM -RA OVC016 03/M07 A3045 RMK AO2 RAB33 SLP314 P0000 60000 T00281072 56022

KCVG 230852Z 17014KT 10SM -RA SCT060 OVC080 06/02 A2994 RMK AO2 SLP142 P0001 60001 T00610022 58027

KDCA 230852Z 19013KT 10SM OVC200 00/M11 A3042 RMK AO2 SLP301 T00001111 58031

KDEN 230853Z 21014KT 10SM FEW220 M07/M15 A3000 RMK AO2 SLP191 T10671150 58011

KDFW 230853Z 33022G26KT 10SM FEW032 SCT120 BKN250 00/M07 A3011 RMK AO2 PK WND 33028/0802 SLP194 T00001067 53015

KDTW 230908Z 14004KT 1 1/4SM -RA BR BKN004 OVC020 01/M01 A2993 RMK AO2 P0001 T00061011 $

KEWR 230851Z 20013KT 10SM BKN140 OVC200 M02/M09 A3045 RMK AO2 SLP311 T10171094 56027

KFLL 230853Z AUTO 11022G28KT 10SM FEW037 SCT050 22/16 A3022 RMK AO2 PK WND 13028/0832 SLP232 T02170161 56012

KIAD 230852Z 19011KT 10SM OVC200 M01/M13 A3038 RMK AO2 SLP290 T10111128 58028

KIAH 230912Z 35014G21KT 6SM RA BR BKN007 BKN015 OVC040 08/07 A3001 RMK AO2 P0004 T00780067

KJFK 230851Z 21014KT 10SM BKN150 OVC260 M01/M07 A3048 RMK AO2 SLP319 T10061067 58023

KLAS 230856Z 11003KT 10SM FEW250 05/M09 A3041 RMK AO2 SLP300 T00501094 50003

KLAX 230853Z 00000KT 10SM CLR 11/M02 A3034 RMK AO2 SLP271 T01111017 53004

KLGA 230851Z 21008KT 10SM BKN150 OVC200 M01/M10 A3045 RMK AO2 SLP310 T10061100 58026

KMCO 230853Z 11003KT 10SM SCT047 15/12 A3028 RMK AO2 SLP252 T01500117 56010

KMDW 230853Z 10004KT 1 1/2SM -DZ BR OVC004 01/01 A2976 RMK AO2 RAE39DZB39 SLP089 P0000 60001 T00110011 58032

KMEM 230854Z 16020G33KT 10SM -RA FEW018 BKN100 OVC120 12/11 A2983 RMK AO2 PK WND 16033/0847 RAB03 SLP100 P0000 60003 T01220106 56031

KMIA 230853Z 10019G28KT 10SM SCT047 BKN055 22/16 A3023 RMK AO2 PK WND 10029/0815 SLP235 T02170156 56011

KMSP 230853Z 31005KT 8SM OVC034 M11/M12 A2999 RMK AO2 SLP173 T11061122 58006

KORD 230851Z 07005KT 1/2SM R10L/P6000FT -DZ BR OVC003 01/01 A2975 RMK AO2 SFC VIS 1 RAE13DZB13 SLP082 P0000 60002 T00110006 56026

KPDX 230853Z 19018G27KT 6SM -RA BR FEW013 OVC030 10/09 A3020 RMK AO2 PK WND 20029/0815 RAB25 SLP226 P0000 60006 T01000089 58002

KPHL 230854Z 19007KT 10SM BKN150 OVC190 M02/M08 A3045 RMK AO2 SLP311 T10171078 58031 $

KPHX 230851Z 27004KT 10SM CLR 09/M07 A3028 RMK AO2 SLP249 T00941072 53012

KPIT 230851Z 16005KT 10SM FEW040 BKN090 OVC150 03/M06 A3006 RMK AO2 SLP197 T00331056 56026

KSAN 230851Z 00000KT 10SM CLR 10/M03 A3034 RMK AO2 SLP274 T01001033 51006

KSEA 230927Z 18018G26KT 3SM -RA BR SCT006 OVC010 10/08 A2994 RMK AO2 PK WND 18028/0917 P0005 T01000083

KSFO 230856Z 22003KT 10SM CLR 10/01 A3043 RMK AO2 SLP303 T01000011 50007 $

KSLC 230854Z 13008KT 10SM SCT065 M07/M10 A3042 RMK AO2 SLP329 T10671100 58009

KSTL 230922Z 19009KT 9SM -RA FEW011 BKN070 OVC080 07/07 A2973 RMK AO2 P0002 T00720067

KTPA 230853Z 11006KT 10SM BKN055 17/12 A3026 RMK AO2 SLP245 T01670117 56009